sensor_id;sensor_type;location;lat;lon;timestamp;P1;durP1;ratioP1;P2;durP2;ratioP2
12707;SDS011;6418;50.824;4.718;2023-09-07T00:01:32;19.27;;;12.43;;
12707;SDS011;6418;50.824;4.718;2023-09-07T00:03:59;18.57;;;11.90;;
12707;SDS011;6418;50.824;4.718;2023-09-07T00:06:28;17.77;;;12.13;;
12707;SDS011;6418;50.824;4.718;2023-09-07T00:08:56;17.43;;;10.90;;
12707;SDS011;6418;50.824;4.718;2023-09-07T00:11:23;15.37;;;10.80;;
12707;SDS011;6418;50.824;4.718;2023-09-07T00:13:50;16.97;;;11.63;;
12707;SDS011;6418;50.824;4.718;2023-09-07T00:16:17;15.60;;;11.10;;
12707;SDS011;6418;50.824;4.718;2023-09-07T00:18:44;17.47;;;10.77;;
12707;SDS011;6418;50.824;4.718;2023-09-07T00:21:11;16.87;;;11.03;;
12707;SDS011;6418;50.824;4.718;2023-09-07T00:23:39;16.53;;;10.57;;
12707;SDS011;6418;50.824;4.718;2023-09-07T00:26:08;17.80;;;11.77;;
12707;SDS011;6418;50.824;4.718;2023-09-07T00:28:37;14.70;;;9.87;;
12707;SDS011;6418;50.824;4.718;2023-09-07T00:31:04;16.77;;;10.53;;
12707;SDS011;6418;50.824;4.718;2023-09-07T00:33:31;15.53;;;10.03;;
12707;SDS011;6418;50.824;4.718;2023-09-07T00:35:58;16.57;;;10.10;;
12707;SDS011;6418;50.824;4.718;2023-09-07T00:38:27;14.47;;;10.00;;
12707;SDS011;6418;50.824;4.718;2023-09-07T00:40:54;16.03;;;9.40;;
12707;SDS011;6418;50.824;4.718;2023-09-07T00:43:22;15.60;;;9.23;;
12707;SDS011;6418;50.824;4.718;2023-09-07T00:45:49;17.33;;;9.83;;
12707;SDS011;6418;50.824;4.718;2023-09-07T00:48:17;14.93;;;8.80;;
12707;SDS011;6418;50.824;4.718;2023-09-07T00:50:44;14.53;;;8.70;;
12707;SDS011;6418;50.824;4.718;2023-09-07T00:53:11;16.10;;;8.70;;
12707;SDS011;6418;50.824;4.718;2023-09-07T00:55:38;16.87;;;9.07;;
12707;SDS011;6418;50.824;4.718;2023-09-07T00:58:05;17.03;;;9.43;;
12707;SDS011;6418;50.824;4.718;2023-09-07T01:00:34;16.60;;;9.53;;
12707;SDS011;6418;50.824;4.718;2023-09-07T01:03:01;15.03;;;9.20;;
12707;SDS011;6418;50.824;4.718;2023-09-07T01:05:30;14.43;;;8.90;;
12707;SDS011;6418;50.824;4.718;2023-09-07T01:08:03;14.83;;;8.93;;
12707;SDS011;6418;50.824;4.718;2023-09-07T01:10:37;17.47;;;8.60;;
12707;SDS011;6418;50.824;4.718;2023-09-07T01:13:03;16.07;;;9.43;;
12707;SDS011;6418;50.824;4.718;2023-09-07T01:15:30;15.67;;;8.40;;
12707;SDS011;6418;50.824;4.718;2023-09-07T01:17:59;15.70;;;9.17;;
12707;SDS011;6418;50.824;4.718;2023-09-07T01:20:27;14.90;;;8.90;;
12707;SDS011;6418;50.824;4.718;2023-09-07T01:22:57;16.10;;;9.33;;
12707;SDS011;6418;50.824;4.718;2023-09-07T01:25:24;14.40;;;9.10;;
12707;SDS011;6418;50.824;4.718;2023-09-07T01:27:53;16.00;;;8.27;;
12707;SDS011;6418;50.824;4.718;2023-09-07T01:30:20;14.40;;;8.67;;
12707;SDS011;6418;50.824;4.718;2023-09-07T01:32:47;14.20;;;8.27;;
12707;SDS011;6418;50.824;4.718;2023-09-07T01:35:14;14.50;;;8.87;;
12707;SDS011;6418;50.824;4.718;2023-09-07T01:37:43;15.70;;;8.60;;
12707;SDS011;6418;50.824;4.718;2023-09-07T01:40:11;13.87;;;8.50;;
12707;SDS011;6418;50.824;4.718;2023-09-07T01:42:38;15.73;;;8.43;;
12707;SDS011;6418;50.824;4.718;2023-09-07T01:45:05;14.10;;;8.40;;
12707;SDS011;6418;50.824;4.718;2023-09-07T01:47:33;17.03;;;8.37;;
12707;SDS011;6418;50.824;4.718;2023-09-07T01:50:00;15.83;;;8.83;;
12707;SDS011;6418;50.824;4.718;2023-09-07T01:52:27;14.87;;;9.37;;
12707;SDS011;6418;50.824;4.718;2023-09-07T01:54:56;16.93;;;9.90;;
12707;SDS011;6418;50.824;4.718;2023-09-07T01:57:24;17.33;;;9.80;;
12707;SDS011;6418;50.824;4.718;2023-09-07T01:59:51;18.10;;;10.63;;
12707;SDS011;6418;50.824;4.718;2023-09-07T02:02:18;17.43;;;10.03;;
12707;SDS011;6418;50.824;4.718;2023-09-07T02:04:45;16.80;;;9.10;;
12707;SDS011;6418;50.824;4.718;2023-09-07T02:07:12;14.63;;;8.70;;
12707;SDS011;6418;50.824;4.718;2023-09-07T02:09:40;17.17;;;8.70;;
12707;SDS011;6418;50.824;4.718;2023-09-07T02:12:07;14.90;;;9.07;;
12707;SDS011;6418;50.824;4.718;2023-09-07T02:14:37;14.67;;;9.13;;
12707;SDS011;6418;50.824;4.718;2023-09-07T02:17:04;15.17;;;9.77;;
12707;SDS011;6418;50.824;4.718;2023-09-07T02:19:31;17.43;;;9.70;;
12707;SDS011;6418;50.824;4.718;2023-09-07T02:21:58;15.60;;;8.77;;
12707;SDS011;6418;50.824;4.718;2023-09-07T02:24:25;14.70;;;8.57;;
12707;SDS011;6418;50.824;4.718;2023-09-07T02:26:52;13.13;;;8.17;;
12707;SDS011;6418;50.824;4.718;2023-09-07T02:29:19;13.80;;;8.43;;
12707;SDS011;6418;50.824;4.718;2023-09-07T02:31:47;16.33;;;9.10;;
12707;SDS011;6418;50.824;4.718;2023-09-07T02:34:14;18.03;;;8.97;;
12707;SDS011;6418;50.824;4.718;2023-09-07T02:36:41;15.33;;;9.17;;
12707;SDS011;6418;50.824;4.718;2023-09-07T02:39:08;15.77;;;9.37;;
12707;SDS011;6418;50.824;4.718;2023-09-07T02:41:36;17.30;;;9.00;;
12707;SDS011;6418;50.824;4.718;2023-09-07T02:44:03;14.53;;;9.57;;
12707;SDS011;6418;50.824;4.718;2023-09-07T02:46:31;15.37;;;9.67;;
12707;SDS011;6418;50.824;4.718;2023-09-07T02:48:59;14.40;;;9.63;;
12707;SDS011;6418;50.824;4.718;2023-09-07T02:51:26;14.63;;;8.70;;
12707;SDS011;6418;50.824;4.718;2023-09-07T02:53:53;20.70;;;10.70;;
12707;SDS011;6418;50.824;4.718;2023-09-07T02:56:20;19.13;;;11.00;;
12707;SDS011;6418;50.824;4.718;2023-09-07T02:58:47;17.60;;;11.40;;
12707;SDS011;6418;50.824;4.718;2023-09-07T03:01:14;18.20;;;11.03;;
12707;SDS011;6418;50.824;4.718;2023-09-07T03:03:45;18.83;;;11.27;;
12707;SDS011;6418;50.824;4.718;2023-09-07T03:06:14;17.57;;;11.10;;
12707;SDS011;6418;50.824;4.718;2023-09-07T03:08:42;15.50;;;10.07;;
12707;SDS011;6418;50.824;4.718;2023-09-07T03:11:09;15.70;;;10.30;;
12707;SDS011;6418;50.824;4.718;2023-09-07T03:13:37;19.03;;;10.60;;
12707;SDS011;6418;50.824;4.718;2023-09-07T03:16:04;15.20;;;9.50;;
12707;SDS011;6418;50.824;4.718;2023-09-07T03:18:31;17.60;;;9.37;;
12707;SDS011;6418;50.824;4.718;2023-09-07T03:20:58;17.07;;;10.33;;
12707;SDS011;6418;50.824;4.718;2023-09-07T03:23:28;16.50;;;10.47;;
12707;SDS011;6418;50.824;4.718;2023-09-07T03:25:56;18.10;;;10.60;;
12707;SDS011;6418;50.824;4.718;2023-09-07T03:28:23;15.93;;;10.43;;
12707;SDS011;6418;50.824;4.718;2023-09-07T03:30:50;16.83;;;10.60;;
12707;SDS011;6418;50.824;4.718;2023-09-07T03:33:17;16.30;;;10.40;;
12707;SDS011;6418;50.824;4.718;2023-09-07T03:35:44;16.03;;;10.10;;
12707;SDS011;6418;50.824;4.718;2023-09-07T03:38:12;16.83;;;10.43;;
12707;SDS011;6418;50.824;4.718;2023-09-07T03:40:41;17.27;;;9.83;;
12707;SDS011;6418;50.824;4.718;2023-09-07T03:43:08;18.87;;;10.70;;
12707;SDS011;6418;50.824;4.718;2023-09-07T03:45:35;17.73;;;9.77;;
12707;SDS011;6418;50.824;4.718;2023-09-07T03:48:03;16.87;;;9.83;;
12707;SDS011;6418;50.824;4.718;2023-09-07T03:50:30;15.93;;;10.23;;
12707;SDS011;6418;50.824;4.718;2023-09-07T03:52:57;17.03;;;9.60;;
12707;SDS011;6418;50.824;4.718;2023-09-07T03:55:24;18.30;;;10.70;;
12707;SDS011;6418;50.824;4.718;2023-09-07T03:57:52;14.97;;;9.83;;
12707;SDS011;6418;50.824;4.718;2023-09-07T04:00:19;16.90;;;8.87;;
12707;SDS011;6418;50.824;4.718;2023-09-07T04:02:46;17.00;;;9.97;;
12707;SDS011;6418;50.824;4.718;2023-09-07T04:05:14;15.20;;;9.57;;
12707;SDS011;6418;50.824;4.718;2023-09-07T04:07:40;16.57;;;9.17;;
12707;SDS011;6418;50.824;4.718;2023-09-07T04:10:07;14.37;;;9.00;;
12707;SDS011;6418;50.824;4.718;2023-09-07T04:12:35;14.20;;;8.80;;
12707;SDS011;6418;50.824;4.718;2023-09-07T04:15:03;15.93;;;9.60;;
12707;SDS011;6418;50.824;4.718;2023-09-07T04:17:31;14.47;;;9.10;;
12707;SDS011;6418;50.824;4.718;2023-09-07T04:20:05;16.03;;;9.03;;
12707;SDS011;6418;50.824;4.718;2023-09-07T04:22:34;15.27;;;8.80;;
12707;SDS011;6418;50.824;4.718;2023-09-07T04:25:01;14.93;;;8.80;;
12707;SDS011;6418;50.824;4.718;2023-09-07T04:27:28;15.57;;;9.23;;
12707;SDS011;6418;50.824;4.718;2023-09-07T04:29:56;14.33;;;9.03;;
12707;SDS011;6418;50.824;4.718;2023-09-07T04:32:24;14.87;;;8.97;;
12707;SDS011;6418;50.824;4.718;2023-09-07T04:34:54;17.37;;;9.47;;
12707;SDS011;6418;50.824;4.718;2023-09-07T04:37:22;15.90;;;8.83;;
12707;SDS011;6418;50.824;4.718;2023-09-07T04:39:50;14.93;;;9.40;;
12707;SDS011;6418;50.824;4.718;2023-09-07T04:42:18;15.03;;;9.07;;
12707;SDS011;6418;50.824;4.718;2023-09-07T04:44:45;14.20;;;9.07;;
12707;SDS011;6418;50.824;4.718;2023-09-07T04:47:13;14.50;;;8.53;;
12707;SDS011;6418;50.824;4.718;2023-09-07T04:49:41;12.87;;;8.30;;
12707;SDS011;6418;50.824;4.718;2023-09-07T04:52:08;13.80;;;8.93;;
12707;SDS011;6418;50.824;4.718;2023-09-07T04:54:35;14.20;;;9.03;;
12707;SDS011;6418;50.824;4.718;2023-09-07T04:57:02;14.67;;;9.27;;
12707;SDS011;6418;50.824;4.718;2023-09-07T04:59:30;16.50;;;9.70;;
12707;SDS011;6418;50.824;4.718;2023-09-07T05:01:59;16.73;;;9.30;;
12707;SDS011;6418;50.824;4.718;2023-09-07T05:04:27;14.53;;;9.00;;
12707;SDS011;6418;50.824;4.718;2023-09-07T05:06:57;15.23;;;8.90;;
12707;SDS011;6418;50.824;4.718;2023-09-07T05:09:24;14.03;;;8.87;;
12707;SDS011;6418;50.824;4.718;2023-09-07T05:11:50;18.33;;;9.63;;
12707;SDS011;6418;50.824;4.718;2023-09-07T05:14:17;16.37;;;9.27;;
12707;SDS011;6418;50.824;4.718;2023-09-07T05:16:44;14.00;;;9.33;;
12707;SDS011;6418;50.824;4.718;2023-09-07T05:19:11;14.70;;;10.00;;
12707;SDS011;6418;50.824;4.718;2023-09-07T05:21:38;15.83;;;10.10;;
12707;SDS011;6418;50.824;4.718;2023-09-07T05:24:07;16.20;;;10.60;;
12707;SDS011;6418;50.824;4.718;2023-09-07T05:26:34;17.50;;;10.30;;
12707;SDS011;6418;50.824;4.718;2023-09-07T05:29:01;17.33;;;10.10;;
12707;SDS011;6418;50.824;4.718;2023-09-07T05:31:28;16.43;;;9.20;;
12707;SDS011;6418;50.824;4.718;2023-09-07T05:33:55;15.13;;;8.97;;
12707;SDS011;6418;50.824;4.718;2023-09-07T05:36:22;14.93;;;9.63;;
12707;SDS011;6418;50.824;4.718;2023-09-07T05:38:49;15.40;;;9.20;;
12707;SDS011;6418;50.824;4.718;2023-09-07T05:41:17;16.40;;;10.20;;
12707;SDS011;6418;50.824;4.718;2023-09-07T05:43:44;14.20;;;9.63;;
12707;SDS011;6418;50.824;4.718;2023-09-07T05:46:11;14.33;;;9.07;;
12707;SDS011;6418;50.824;4.718;2023-09-07T05:48:38;16.43;;;9.70;;
12707;SDS011;6418;50.824;4.718;2023-09-07T05:51:05;15.67;;;10.40;;
12707;SDS011;6418;50.824;4.718;2023-09-07T05:53:32;14.90;;;9.60;;
12707;SDS011;6418;50.824;4.718;2023-09-07T05:55:59;15.43;;;10.03;;
12707;SDS011;6418;50.824;4.718;2023-09-07T05:58:27;17.03;;;11.03;;
12707;SDS011;6418;50.824;4.718;2023-09-07T06:00:54;16.57;;;11.67;;
12707;SDS011;6418;50.824;4.718;2023-09-07T06:03:21;16.90;;;11.47;;
12707;SDS011;6418;50.824;4.718;2023-09-07T06:05:48;16.33;;;10.53;;
12707;SDS011;6418;50.824;4.718;2023-09-07T06:08:15;15.87;;;10.90;;
12707;SDS011;6418;50.824;4.718;2023-09-07T06:10:42;15.57;;;10.93;;
12707;SDS011;6418;50.824;4.718;2023-09-07T06:13:09;18.13;;;10.63;;
12707;SDS011;6418;50.824;4.718;2023-09-07T06:15:38;18.50;;;11.27;;
12707;SDS011;6418;50.824;4.718;2023-09-07T06:18:04;17.33;;;12.10;;
12707;SDS011;6418;50.824;4.718;2023-09-07T06:20:32;17.47;;;12.40;;
12707;SDS011;6418;50.824;4.718;2023-09-07T06:23:00;18.43;;;12.60;;
12707;SDS011;6418;50.824;4.718;2023-09-07T06:25:27;19.70;;;14.37;;
12707;SDS011;6418;50.824;4.718;2023-09-07T06:27:54;23.37;;;14.90;;
12707;SDS011;6418;50.824;4.718;2023-09-07T06:30:21;24.37;;;16.53;;
12707;SDS011;6418;50.824;4.718;2023-09-07T06:32:49;21.43;;;15.83;;
12707;SDS011;6418;50.824;4.718;2023-09-07T06:35:18;25.20;;;17.03;;
12707;SDS011;6418;50.824;4.718;2023-09-07T06:37:45;22.47;;;16.27;;
12707;SDS011;6418;50.824;4.718;2023-09-07T06:40:12;23.90;;;16.73;;
12707;SDS011;6418;50.824;4.718;2023-09-07T06:42:40;22.67;;;16.07;;
12707;SDS011;6418;50.824;4.718;2023-09-07T06:45:08;24.30;;;16.87;;
12707;SDS011;6418;50.824;4.718;2023-09-07T06:47:35;22.60;;;16.50;;
12707;SDS011;6418;50.824;4.718;2023-09-07T06:50:04;23.33;;;16.97;;
12707;SDS011;6418;50.824;4.718;2023-09-07T06:52:32;23.80;;;15.90;;
12707;SDS011;6418;50.824;4.718;2023-09-07T06:54:59;23.20;;;16.27;;
12707;SDS011;6418;50.824;4.718;2023-09-07T06:57:26;22.67;;;14.90;;
12707;SDS011;6418;50.824;4.718;2023-09-07T06:59:53;19.10;;;13.73;;
12707;SDS011;6418;50.824;4.718;2023-09-07T07:02:20;20.43;;;14.60;;
12707;SDS011;6418;50.824;4.718;2023-09-07T07:04:47;18.47;;;13.03;;
12707;SDS011;6418;50.824;4.718;2023-09-07T07:07:16;19.63;;;13.73;;
12707;SDS011;6418;50.824;4.718;2023-09-07T07:09:43;18.77;;;13.07;;
12707;SDS011;6418;50.824;4.718;2023-09-07T07:12:10;21.43;;;14.40;;
12707;SDS011;6418;50.824;4.718;2023-09-07T07:14:38;22.63;;;13.63;;
12707;SDS011;6418;50.824;4.718;2023-09-07T07:17:05;19.60;;;13.63;;
12707;SDS011;6418;50.824;4.718;2023-09-07T07:19:32;19.67;;;13.20;;
12707;SDS011;6418;50.824;4.718;2023-09-07T07:21:59;19.40;;;13.20;;
12707;SDS011;6418;50.824;4.718;2023-09-07T07:24:27;21.97;;;13.57;;
12707;SDS011;6418;50.824;4.718;2023-09-07T07:26:54;20.33;;;13.80;;
12707;SDS011;6418;50.824;4.718;2023-09-07T07:29:21;22.17;;;13.17;;
12707;SDS011;6418;50.824;4.718;2023-09-07T07:31:48;20.50;;;13.13;;
12707;SDS011;6418;50.824;4.718;2023-09-07T07:34:15;18.90;;;12.37;;
12707;SDS011;6418;50.824;4.718;2023-09-07T07:36:42;18.53;;;12.60;;
12707;SDS011;6418;50.824;4.718;2023-09-07T07:39:09;18.93;;;12.17;;
12707;SDS011;6418;50.824;4.718;2023-09-07T07:41:37;19.23;;;13.23;;
12707;SDS011;6418;50.824;4.718;2023-09-07T07:44:04;20.37;;;13.50;;
12707;SDS011;6418;50.824;4.718;2023-09-07T07:46:31;19.33;;;12.80;;
12707;SDS011;6418;50.824;4.718;2023-09-07T07:48:58;18.43;;;12.90;;
12707;SDS011;6418;50.824;4.718;2023-09-07T07:51:25;19.60;;;13.37;;
12707;SDS011;6418;50.824;4.718;2023-09-07T07:53:53;19.17;;;13.87;;
12707;SDS011;6418;50.824;4.718;2023-09-07T07:56:21;21.00;;;14.17;;
12707;SDS011;6418;50.824;4.718;2023-09-07T07:58:50;21.73;;;14.80;;
12707;SDS011;6418;50.824;4.718;2023-09-07T08:01:18;21.33;;;14.70;;
12707;SDS011;6418;50.824;4.718;2023-09-07T08:03:46;23.23;;;15.03;;
12707;SDS011;6418;50.824;4.718;2023-09-07T08:06:13;22.03;;;15.53;;
12707;SDS011;6418;50.824;4.718;2023-09-07T08:08:40;19.83;;;14.63;;
12707;SDS011;6418;50.824;4.718;2023-09-07T08:11:07;21.53;;;15.50;;
12707;SDS011;6418;50.824;4.718;2023-09-07T08:13:34;25.23;;;14.90;;
12707;SDS011;6418;50.824;4.718;2023-09-07T08:16:03;22.13;;;14.73;;
12707;SDS011;6418;50.824;4.718;2023-09-07T08:18:32;22.00;;;15.13;;
12707;SDS011;6418;50.824;4.718;2023-09-07T08:21:00;23.08;;;14.50;;
12707;SDS011;6418;50.824;4.718;2023-09-07T08:23:27;23.48;;;14.98;;
12707;SDS011;6418;50.824;4.718;2023-09-07T08:25:54;20.27;;;13.80;;
12707;SDS011;6418;50.824;4.718;2023-09-07T08:28:21;19.15;;;13.60;;
12707;SDS011;6418;50.824;4.718;2023-09-07T08:30:50;20.53;;;13.73;;
12707;SDS011;6418;50.824;4.718;2023-09-07T08:33:20;19.85;;;13.60;;
12707;SDS011;6418;50.824;4.718;2023-09-07T08:35:53;18.73;;;13.13;;
12707;SDS011;6418;50.824;4.718;2023-09-07T08:38:22;20.00;;;13.23;;
12707;SDS011;6418;50.824;4.718;2023-09-07T08:40:53;18.38;;;13.32;;
12707;SDS011;6418;50.824;4.718;2023-09-07T08:43:21;18.02;;;12.20;;
12707;SDS011;6418;50.824;4.718;2023-09-07T08:45:52;19.70;;;12.68;;
12707;SDS011;6418;50.824;4.718;2023-09-07T08:48:29;17.75;;;12.35;;
12707;SDS011;6418;50.824;4.718;2023-09-07T08:50:57;18.40;;;12.75;;
12707;SDS011;6418;50.824;4.718;2023-09-07T08:53:24;16.70;;;12.25;;
12707;SDS011;6418;50.824;4.718;2023-09-07T08:55:51;18.77;;;12.43;;
12707;SDS011;6418;50.824;4.718;2023-09-07T08:58:19;17.27;;;11.02;;
12707;SDS011;6418;50.824;4.718;2023-09-07T09:00:45;17.48;;;11.57;;
12707;SDS011;6418;50.824;4.718;2023-09-07T09:03:17;16.85;;;11.00;;
12707;SDS011;6418;50.824;4.718;2023-09-07T09:05:47;16.25;;;11.68;;
12707;SDS011;6418;50.824;4.718;2023-09-07T09:08:16;21.30;;;11.38;;
12707;SDS011;6418;50.824;4.718;2023-09-07T09:10:45;14.77;;;10.48;;
12707;SDS011;6418;50.824;4.718;2023-09-07T09:13:12;21.52;;;11.40;;
12707;SDS011;6418;50.824;4.718;2023-09-07T09:15:39;16.75;;;10.43;;
12707;SDS011;6418;50.824;4.718;2023-09-07T09:18:10;16.00;;;10.40;;
12707;SDS011;6418;50.824;4.718;2023-09-07T09:20:38;16.45;;;10.50;;
12707;SDS011;6418;50.824;4.718;2023-09-07T09:23:07;15.52;;;10.15;;
12707;SDS011;6418;50.824;4.718;2023-09-07T09:25:34;17.65;;;10.07;;
12707;SDS011;6418;50.824;4.718;2023-09-07T09:28:01;18.80;;;9.88;;
12707;SDS011;6418;50.824;4.718;2023-09-07T09:30:28;18.27;;;9.35;;
12707;SDS011;6418;50.824;4.718;2023-09-07T09:32:55;14.20;;;9.18;;
12707;SDS011;6418;50.824;4.718;2023-09-07T09:35:25;16.75;;;9.45;;
12707;SDS011;6418;50.824;4.718;2023-09-07T09:37:52;15.07;;;8.73;;
12707;SDS011;6418;50.824;4.718;2023-09-07T09:40:21;15.45;;;8.57;;
12707;SDS011;6418;50.824;4.718;2023-09-07T09:42:48;15.63;;;8.60;;
12707;SDS011;6418;50.824;4.718;2023-09-07T09:45:20;14.52;;;8.70;;
12707;SDS011;6418;50.824;4.718;2023-09-07T09:47:48;13.68;;;8.10;;
12707;SDS011;6418;50.824;4.718;2023-09-07T09:50:18;14.48;;;8.57;;
12707;SDS011;6418;50.824;4.718;2023-09-07T09:52:45;13.70;;;8.10;;
12707;SDS011;6418;50.824;4.718;2023-09-07T09:55:13;16.15;;;8.38;;
12707;SDS011;6418;50.824;4.718;2023-09-07T09:57:43;14.32;;;8.27;;
12707;SDS011;6418;50.824;4.718;2023-09-07T10:00:11;14.55;;;8.25;;
12707;SDS011;6418;50.824;4.718;2023-09-07T10:02:51;13.05;;;7.30;;
12707;SDS011;6418;50.824;4.718;2023-09-07T10:05:25;13.27;;;7.20;;
12707;SDS011;6418;50.824;4.718;2023-09-07T10:07:59;11.25;;;6.55;;
12707;SDS011;6418;50.824;4.718;2023-09-07T10:10:31;10.52;;;6.28;;
12707;SDS011;6418;50.824;4.718;2023-09-07T10:13:03;10.35;;;5.88;;
12707;SDS011;6418;50.824;4.718;2023-09-07T10:15:30;9.90;;;5.57;;
12707;SDS011;6418;50.824;4.718;2023-09-07T10:18:08;10.55;;;5.93;;
12707;SDS011;6418;50.824;4.718;2023-09-07T10:20:52;11.13;;;6.20;;
12707;SDS011;6418;50.824;4.718;2023-09-07T10:23:21;12.15;;;6.10;;
12707;SDS011;6418;50.824;4.718;2023-09-07T10:25:50;11.57;;;5.93;;
12707;SDS011;6418;50.824;4.718;2023-09-07T10:28:20;9.50;;;5.45;;
12707;SDS011;6418;50.824;4.718;2023-09-07T10:31:00;9.07;;;5.53;;
12707;SDS011;6418;50.824;4.718;2023-09-07T10:33:29;10.52;;;5.70;;
12707;SDS011;6418;50.824;4.718;2023-09-07T10:35:57;9.65;;;5.72;;
12707;SDS011;6418;50.824;4.718;2023-09-07T10:38:24;11.93;;;5.85;;
12707;SDS011;6418;50.824;4.718;2023-09-07T10:40:54;10.00;;;5.75;;
12707;SDS011;6418;50.824;4.718;2023-09-07T10:43:25;10.32;;;5.57;;
12707;SDS011;6418;50.824;4.718;2023-09-07T10:45:52;9.98;;;5.65;;
12707;SDS011;6418;50.824;4.718;2023-09-07T10:48:21;10.90;;;6.03;;
12707;SDS011;6418;50.824;4.718;2023-09-07T10:50:48;11.38;;;5.60;;
12707;SDS011;6418;50.824;4.718;2023-09-07T10:53:23;10.70;;;5.60;;
12707;SDS011;6418;50.824;4.718;2023-09-07T10:55:52;9.18;;;5.63;;
12707;SDS011;6418;50.824;4.718;2023-09-07T10:58:25;10.73;;;5.78;;
12707;SDS011;6418;50.824;4.718;2023-09-07T11:00:53;10.98;;;5.80;;
12707;SDS011;6418;50.824;4.718;2023-09-07T11:03:20;12.35;;;6.13;;
12707;SDS011;6418;50.824;4.718;2023-09-07T11:05:47;9.90;;;5.88;;
12707;SDS011;6418;50.824;4.718;2023-09-07T11:08:17;12.95;;;6.65;;
12707;SDS011;6418;50.824;4.718;2023-09-07T11:10:44;11.93;;;5.97;;
12707;SDS011;6418;50.824;4.718;2023-09-07T11:13:11;10.85;;;5.90;;
12707;SDS011;6418;50.824;4.718;2023-09-07T11:15:40;12.90;;;6.30;;
12707;SDS011;6418;50.824;4.718;2023-09-07T11:18:08;10.40;;;6.30;;
12707;SDS011;6418;50.824;4.718;2023-09-07T11:20:35;11.48;;;6.20;;
12707;SDS011;6418;50.824;4.718;2023-09-07T11:23:04;12.27;;;6.47;;
12707;SDS011;6418;50.824;4.718;2023-09-07T11:25:35;11.80;;;6.50;;
12707;SDS011;6418;50.824;4.718;2023-09-07T11:28:03;11.30;;;5.85;;
12707;SDS011;6418;50.824;4.718;2023-09-07T11:30:30;11.95;;;6.07;;
12707;SDS011;6418;50.824;4.718;2023-09-07T11:33:03;12.57;;;6.47;;
12707;SDS011;6418;50.824;4.718;2023-09-07T11:35:31;12.88;;;6.50;;
12707;SDS011;6418;50.824;4.718;2023-09-07T11:37:59;9.18;;;5.60;;
12707;SDS011;6418;50.824;4.718;2023-09-07T11:40:29;13.10;;;6.55;;
12707;SDS011;6418;50.824;4.718;2023-09-07T11:42:56;10.30;;;6.30;;
12707;SDS011;6418;50.824;4.718;2023-09-07T11:45:23;11.68;;;6.30;;
12707;SDS011;6418;50.824;4.718;2023-09-07T11:47:51;11.70;;;6.65;;
12707;SDS011;6418;50.824;4.718;2023-09-07T11:50:19;15.02;;;6.38;;
12707;SDS011;6418;50.824;4.718;2023-09-07T11:52:49;10.20;;;6.28;;
12707;SDS011;6418;50.824;4.718;2023-09-07T11:55:17;12.70;;;6.90;;
12707;SDS011;6418;50.824;4.718;2023-09-07T11:57:44;13.77;;;6.57;;
12707;SDS011;6418;50.824;4.718;2023-09-07T12:00:11;13.45;;;6.10;;
12707;SDS011;6418;50.824;4.718;2023-09-07T12:02:39;12.82;;;7.07;;
12707;SDS011;6418;50.824;4.718;2023-09-07T12:05:07;14.07;;;6.78;;
12707;SDS011;6418;50.824;4.718;2023-09-07T12:07:36;12.23;;;6.68;;
12707;SDS011;6418;50.824;4.718;2023-09-07T12:10:03;13.27;;;6.82;;
12707;SDS011;6418;50.824;4.718;2023-09-07T12:12:31;15.38;;;6.95;;
12707;SDS011;6418;50.824;4.718;2023-09-07T12:14:58;12.27;;;6.43;;
12707;SDS011;6418;50.824;4.718;2023-09-07T12:17:25;14.23;;;6.30;;
12707;SDS011;6418;50.824;4.718;2023-09-07T12:19:52;13.18;;;6.13;;
12707;SDS011;6418;50.824;4.718;2023-09-07T12:22:19;12.55;;;6.22;;
12707;SDS011;6418;50.824;4.718;2023-09-07T12:24:47;14.00;;;5.82;;
12707;SDS011;6418;50.824;4.718;2023-09-07T12:27:15;14.00;;;5.90;;
12707;SDS011;6418;50.824;4.718;2023-09-07T12:29:43;11.07;;;5.97;;
12707;SDS011;6418;50.824;4.718;2023-09-07T12:32:10;14.07;;;6.10;;
12707;SDS011;6418;50.824;4.718;2023-09-07T12:34:37;15.00;;;5.97;;
12707;SDS011;6418;50.824;4.718;2023-09-07T12:37:06;13.35;;;6.75;;
12707;SDS011;6418;50.824;4.718;2023-09-07T12:39:33;11.07;;;6.10;;
12707;SDS011;6418;50.824;4.718;2023-09-07T12:42:01;14.65;;;6.78;;
12707;SDS011;6418;50.824;4.718;2023-09-07T12:44:28;12.20;;;6.10;;
12707;SDS011;6418;50.824;4.718;2023-09-07T12:46:55;15.35;;;6.38;;
12707;SDS011;6418;50.824;4.718;2023-09-07T12:49:22;13.45;;;6.40;;
12707;SDS011;6418;50.824;4.718;2023-09-07T12:51:49;15.98;;;6.32;;
12707;SDS011;6418;50.824;4.718;2023-09-07T12:54:16;14.88;;;6.55;;
12707;SDS011;6418;50.824;4.718;2023-09-07T12:56:43;12.55;;;6.03;;
12707;SDS011;6418;50.824;4.718;2023-09-07T12:59:12;13.18;;;5.93;;
12707;SDS011;6418;50.824;4.718;2023-09-07T13:01:39;13.15;;;5.93;;
12707;SDS011;6418;50.824;4.718;2023-09-07T13:04:06;14.77;;;6.60;;
12707;SDS011;6418;50.824;4.718;2023-09-07T13:06:33;14.55;;;6.20;;
12707;SDS011;6418;50.824;4.718;2023-09-07T13:09:00;11.35;;;5.93;;
12707;SDS011;6418;50.824;4.718;2023-09-07T13:11:27;11.40;;;6.15;;
12707;SDS011;6418;50.824;4.718;2023-09-07T13:13:54;12.57;;;6.07;;
12707;SDS011;6418;50.824;4.718;2023-09-07T13:16:22;12.52;;;6.10;;
12707;SDS011;6418;50.824;4.718;2023-09-07T13:18:49;11.02;;;6.00;;
12707;SDS011;6418;50.824;4.718;2023-09-07T13:21:16;13.35;;;5.68;;
12707;SDS011;6418;50.824;4.718;2023-09-07T13:23:44;13.60;;;5.82;;
12707;SDS011;6418;50.824;4.718;2023-09-07T13:26:11;15.93;;;6.10;;
12707;SDS011;6418;50.824;4.718;2023-09-07T13:28:38;11.95;;;5.65;;
12707;SDS011;6418;50.824;4.718;2023-09-07T13:31:06;12.30;;;5.72;;
12707;SDS011;6418;50.824;4.718;2023-09-07T13:33:34;13.02;;;5.82;;
12707;SDS011;6418;50.824;4.718;2023-09-07T13:36:01;13.88;;;6.05;;
12707;SDS011;6418;50.824;4.718;2023-09-07T13:38:28;13.85;;;6.10;;
12707;SDS011;6418;50.824;4.718;2023-09-07T13:40:55;12.60;;;5.82;;
12707;SDS011;6418;50.824;4.718;2023-09-07T13:43:22;14.55;;;6.10;;
12707;SDS011;6418;50.824;4.718;2023-09-07T13:45:49;11.52;;;6.03;;
12707;SDS011;6418;50.824;4.718;2023-09-07T13:48:16;12.70;;;6.30;;
12707;SDS011;6418;50.824;4.718;2023-09-07T13:50:44;11.88;;;6.05;;
12707;SDS011;6418;50.824;4.718;2023-09-07T13:53:12;10.00;;;5.68;;
12707;SDS011;6418;50.824;4.718;2023-09-07T13:55:39;12.13;;;6.28;;
12707;SDS011;6418;50.824;4.718;2023-09-07T13:58:07;11.50;;;6.00;;
12707;SDS011;6418;50.824;4.718;2023-09-07T14:00:34;14.65;;;5.70;;
12707;SDS011;6418;50.824;4.718;2023-09-07T14:03:01;13.38;;;5.85;;
12707;SDS011;6418;50.824;4.718;2023-09-07T14:05:28;13.05;;;5.82;;
12707;SDS011;6418;50.824;4.718;2023-09-07T14:07:56;11.02;;;5.65;;
12707;SDS011;6418;50.824;4.718;2023-09-07T14:10:23;10.68;;;5.60;;
12707;SDS011;6418;50.824;4.718;2023-09-07T14:12:50;12.57;;;5.68;;
12707;SDS011;6418;50.824;4.718;2023-09-07T14:15:17;12.98;;;5.78;;
12707;SDS011;6418;50.824;4.718;2023-09-07T14:17:44;10.77;;;5.65;;
12707;SDS011;6418;50.824;4.718;2023-09-07T14:20:11;10.82;;;5.70;;
12707;SDS011;6418;50.824;4.718;2023-09-07T14:22:38;11.77;;;6.13;;
12707;SDS011;6418;50.824;4.718;2023-09-07T14:25:07;11.57;;;5.80;;
12707;SDS011;6418;50.824;4.718;2023-09-07T14:27:34;11.70;;;5.78;;
12707;SDS011;6418;50.824;4.718;2023-09-07T14:30:01;11.88;;;5.63;;
12707;SDS011;6418;50.824;4.718;2023-09-07T14:32:28;11.65;;;5.97;;
12707;SDS011;6418;50.824;4.718;2023-09-07T14:34:55;10.82;;;5.60;;
12707;SDS011;6418;50.824;4.718;2023-09-07T14:37:22;11.73;;;5.78;;
12707;SDS011;6418;50.824;4.718;2023-09-07T14:39:49;10.35;;;6.00;;
12707;SDS011;6418;50.824;4.718;2023-09-07T14:42:17;12.07;;;6.00;;
12707;SDS011;6418;50.824;4.718;2023-09-07T14:44:44;11.18;;;6.07;;
12707;SDS011;6418;50.824;4.718;2023-09-07T14:47:12;13.52;;;6.00;;